createdAt,value
2018-05-02T00:02:16.168Z,4.30
2018-05-02T00:04:48.292Z,6.97
2018-05-02T00:07:20.385Z,4.17
2018-05-02T00:09:52.562Z,4.30
2018-05-02T00:12:25.392Z,3.70
2018-05-02T00:14:57.422Z,3.70
2018-05-02T00:17:36.244Z,5.10
2018-05-02T00:20:13.764Z,3.47
2018-05-02T00:22:51.881Z,4.77
2018-05-02T00:25:24.019Z,4.10
2018-05-02T00:27:56.958Z,5.03
2018-05-02T00:30:29.163Z,5.03
2018-05-02T00:33:02.140Z,3.73
2018-05-02T00:35:34.319Z,3.57
2018-05-02T00:38:07.303Z,5.27
2018-05-02T00:40:39.477Z,4.30
2018-05-02T00:43:12.437Z,3.50
2018-05-02T00:45:44.810Z,3.97
2018-05-02T00:48:16.955Z,5.73
2018-05-02T00:50:49.077Z,4.47
2018-05-02T00:53:22.007Z,3.87
2018-05-02T00:55:54.133Z,5.57
2018-05-02T00:58:27.713Z,2.77
2018-05-02T01:00:59.785Z,2.97
2018-05-02T01:03:32.766Z,3.97
2018-05-02T01:06:04.820Z,4.53
2018-05-02T01:08:37.218Z,5.20
2018-05-02T01:11:10.487Z,2.70
2018-05-02T01:13:42.640Z,3.80
2018-05-02T01:16:14.952Z,3.80
2018-05-02T01:18:47.887Z,3.73
2018-05-02T01:21:19.981Z,3.10
2018-05-02T01:23:52.084Z,3.03
2018-05-02T01:26:24.194Z,7.37
2018-05-02T01:28:56.274Z,4.90
2018-05-02T01:31:33.734Z,5.73
2018-05-02T01:34:08.521Z,3.63
2018-05-02T01:36:46.768Z,6.23
2018-05-02T01:39:18.972Z,5.10
2018-05-02T01:41:51.128Z,4.90
2018-05-02T01:44:23.282Z,6.00
2018-05-02T01:46:55.461Z,5.13
2018-05-02T01:49:28.305Z,3.67
2018-05-02T01:52:00.855Z,4.23
2018-05-02T01:54:33.798Z,3.90
2018-05-02T01:57:06.295Z,4.23
2018-05-02T01:59:38.582Z,3.40
2018-05-02T02:02:10.934Z,4.60
2018-05-02T02:04:43.286Z,5.83
2018-05-02T02:07:15.618Z,3.53
2018-05-02T02:09:48.520Z,2.87
2018-05-02T02:12:20.738Z,5.30
2018-05-02T02:14:52.976Z,4.27
2018-05-02T02:17:25.273Z,3.40
2018-05-02T02:19:57.458Z,6.30
2018-05-02T02:22:29.616Z,2.90
2018-05-02T02:25:01.683Z,3.13
2018-05-02T02:27:33.745Z,4.03
2018-05-02T02:30:05.867Z,3.83
2018-05-02T02:32:38.012Z,6.27
2018-05-02T02:35:10.144Z,5.10
2018-05-02T02:37:42.518Z,5.10
2018-05-02T02:40:14.695Z,4.47
2018-05-02T02:42:47.072Z,4.93
2018-05-02T02:45:20.567Z,5.70
2018-05-02T02:47:52.631Z,8.03
2018-05-02T02:50:24.766Z,4.40
2018-05-02T02:52:56.971Z,3.53
2018-05-02T02:55:29.102Z,4.23
2018-05-02T02:58:01.158Z,7.57
2018-05-02T03:00:33.494Z,4.60
2018-05-02T03:03:05.811Z,5.10
2018-05-02T03:05:37.998Z,4.40
2018-05-02T03:08:10.062Z,6.17
2018-05-02T03:13:41.740Z,7.90
2018-05-02T03:16:13.927Z,6.33
2018-05-02T03:18:46.041Z,5.07
2018-05-02T03:21:18.148Z,5.67
2018-05-02T03:23:50.274Z,6.10
2018-05-02T03:26:23.222Z,8.30
2018-05-02T03:28:56.300Z,6.90
2018-05-02T03:31:28.466Z,6.17
2018-05-02T03:34:00.611Z,10.40
2018-05-02T03:36:32.770Z,9.47
2018-05-02T03:39:05.941Z,8.73
2018-05-02T03:41:38.029Z,7.50
2018-05-02T03:44:10.195Z,8.80
2018-05-02T03:46:42.327Z,9.70
2018-05-02T03:49:15.155Z,8.87
2018-05-02T03:51:47.559Z,8.90
2018-05-02T03:54:19.952Z,9.73
2018-05-02T03:56:52.201Z,8.10
2018-05-02T03:59:36.896Z,12.93
2018-05-02T04:02:21.675Z,7.97
2018-05-02T04:05:07.211Z,10.73
2018-05-02T04:07:40.122Z,8.60
2018-05-02T04:10:12.249Z,8.43
2018-05-02T04:12:52.101Z,10.87
2018-05-02T04:15:24.527Z,13.23
2018-05-02T04:17:56.880Z,9.23
2018-05-02T04:20:30.238Z,10.77
2018-05-02T04:23:03.293Z,8.17
2018-05-02T04:25:36.374Z,11.07
2018-05-02T04:28:08.581Z,10.77
2018-05-02T04:30:40.767Z,10.00
2018-05-02T04:33:13.801Z,10.37
2018-05-02T04:35:46.028Z,10.53
2018-05-02T04:38:18.905Z,12.10
2018-05-02T04:40:51.915Z,11.40
2018-05-02T04:43:24.785Z,9.87
2018-05-02T04:45:57.761Z,12.93
2018-05-02T04:48:29.836Z,11.60
2018-05-02T04:51:02.883Z,11.57
2018-05-02T04:53:34.976Z,10.00
2018-05-02T04:56:07.025Z,10.67
2018-05-02T04:58:39.175Z,11.53
2018-05-02T05:01:11.262Z,12.90
2018-05-02T05:03:43.639Z,12.90
2018-05-02T05:06:16.787Z,12.40
2018-05-02T05:08:48.914Z,12.37
2018-05-02T05:11:21.197Z,12.87
2018-05-02T05:13:54.138Z,14.57
2018-05-02T05:16:26.236Z,12.27
2018-05-02T05:18:59.236Z,12.33
2018-05-02T05:21:32.181Z,11.83
2018-05-02T05:24:04.386Z,13.87
2018-05-02T05:26:37.214Z,12.77
2018-05-02T05:29:09.328Z,14.43
2018-05-02T05:31:42.205Z,13.20
2018-05-02T05:34:15.198Z,11.63
2018-05-02T05:36:48.138Z,11.87
2018-05-02T05:39:20.498Z,11.50
2018-05-02T05:41:52.596Z,12.03
2018-05-02T05:44:25.735Z,14.80
2018-05-02T05:46:57.750Z,14.63
2018-05-02T05:49:29.863Z,11.87
2018-05-02T05:52:02.783Z,14.30
2018-05-02T05:54:34.915Z,14.83
2018-05-02T05:57:07.052Z,12.07
2018-05-02T05:59:39.973Z,12.23
2018-05-02T06:02:12.382Z,13.50
2018-05-02T06:04:44.818Z,12.07
2018-05-02T06:07:17.032Z,12.97
2018-05-02T06:09:49.217Z,13.17
2018-05-02T06:12:21.412Z,12.23
2018-05-02T06:14:53.644Z,13.77
2018-05-02T06:17:26.053Z,13.50
2018-05-02T06:19:58.287Z,11.50
2018-05-02T06:22:30.336Z,16.03
2018-05-02T06:25:02.690Z,12.00
2018-05-02T06:27:34.843Z,13.53
2018-05-02T06:30:07.030Z,11.07
2018-05-02T06:32:39.358Z,11.60
2018-05-02T06:35:12.318Z,10.77
2018-05-02T06:37:44.520Z,13.73
2018-05-02T06:40:16.761Z,10.17
2018-05-02T06:42:49.015Z,10.03
2018-05-02T06:45:21.180Z,9.97
2018-05-02T06:47:53.303Z,9.57
2018-05-02T06:50:26.507Z,10.83
2018-05-02T06:52:58.715Z,9.93
2018-05-02T06:55:31.838Z,10.97
2018-05-02T06:58:04.743Z,10.30
2018-05-02T07:00:37.672Z,9.40
2018-05-02T07:03:10.037Z,9.27
2018-05-02T07:05:42.255Z,9.10
2018-05-02T07:08:15.201Z,9.93
2018-05-02T07:10:47.608Z,8.20
2018-05-02T07:13:20.583Z,8.47
2018-05-02T07:15:52.698Z,8.83
2018-05-02T07:18:25.088Z,9.20
2018-05-02T07:20:57.282Z,8.13
2018-05-02T07:23:29.514Z,8.90
2018-05-02T07:26:01.762Z,11.33
2018-05-02T07:28:34.224Z,8.40
2018-05-02T07:31:07.009Z,8.87
2018-05-02T07:33:39.836Z,9.23
2018-05-02T07:36:11.947Z,11.87
2018-05-02T07:38:44.935Z,8.77
2018-05-02T07:41:17.872Z,9.67
2018-05-02T07:43:50.079Z,11.50
2018-05-02T07:46:22.398Z,8.77
2018-05-02T07:48:54.779Z,9.23
2018-05-02T07:51:27.094Z,9.50
2018-05-02T07:53:59.366Z,9.47
2018-05-02T07:56:31.745Z,11.80
2018-05-02T07:59:04.701Z,8.43
2018-05-02T08:01:36.824Z,8.63
2018-05-02T08:04:09.002Z,7.93
2018-05-02T08:06:41.321Z,7.90
2018-05-02T08:09:13.524Z,7.77
2018-05-02T08:11:45.896Z,8.67
2018-05-02T08:14:18.738Z,7.70
2018-05-02T08:16:50.866Z,8.00
2018-05-02T08:19:23.093Z,7.10
2018-05-02T08:21:56.012Z,7.60
2018-05-02T08:24:28.207Z,8.13
2018-05-02T08:27:00.546Z,7.87
2018-05-02T08:29:32.717Z,9.70
2018-05-02T08:32:04.928Z,8.77
2018-05-02T08:34:37.107Z,7.47
2018-05-02T08:37:09.254Z,7.50
2018-05-02T08:39:41.693Z,7.33
2018-05-02T08:42:13.816Z,6.60
2018-05-02T08:44:46.042Z,6.67
2018-05-02T08:47:18.351Z,6.90
2018-05-02T08:49:50.790Z,9.97
2018-05-02T08:52:22.890Z,5.97
2018-05-02T08:54:55.174Z,5.80
2018-05-02T08:57:27.488Z,6.17
2018-05-02T08:59:59.829Z,7.23
2018-05-02T09:02:31.954Z,8.67
2018-05-02T09:05:04.139Z,5.43
2018-05-02T09:07:36.529Z,6.53
2018-05-02T09:10:09.458Z,5.90
2018-05-02T09:12:41.538Z,5.67
2018-05-02T09:15:13.622Z,5.03
2018-05-02T09:17:46.515Z,4.23
2018-05-02T09:20:18.671Z,4.90
2018-05-02T09:22:51.006Z,6.00
2018-05-02T09:25:23.159Z,4.40
2018-05-02T09:27:56.072Z,5.13
2018-05-02T09:30:28.435Z,6.03
2018-05-02T09:33:00.794Z,6.40
2018-05-02T09:35:33.174Z,5.20
2018-05-02T09:38:05.538Z,6.33
2018-05-02T09:40:37.751Z,5.23
2018-05-02T09:43:10.059Z,5.77
2018-05-02T09:45:43.319Z,4.50
2018-05-02T09:48:15.421Z,5.70
2018-05-02T09:50:51.690Z,4.90
2018-05-02T09:53:24.705Z,6.43
2018-05-02T09:55:56.995Z,5.30
2018-05-02T09:58:29.167Z,6.00
2018-05-02T10:01:01.521Z,5.87
2018-05-02T10:03:33.633Z,5.67
2018-05-02T10:06:05.738Z,7.07
2018-05-02T10:08:37.786Z,5.80
2018-05-02T10:11:10.784Z,7.03
2018-05-02T10:13:43.166Z,5.77
2018-05-02T10:16:15.341Z,5.63
2018-05-02T10:18:47.618Z,5.87
2018-05-02T10:21:19.853Z,5.83
2018-05-02T10:23:52.960Z,6.30
2018-05-02T10:26:25.092Z,6.10
2018-05-02T10:28:57.252Z,10.30
2018-05-02T10:31:29.374Z,7.10
2018-05-02T10:34:01.514Z,7.13
2018-05-02T10:36:34.699Z,8.33
2018-05-02T10:39:06.963Z,6.93
2018-05-02T10:41:39.337Z,5.53
2018-05-02T10:44:12.431Z,7.73
2018-05-02T10:46:45.335Z,5.40
2018-05-02T10:49:17.696Z,4.73
2018-05-02T10:51:50.579Z,4.70
2018-05-02T10:54:23.551Z,5.30
2018-05-02T10:56:57.219Z,5.30
2018-05-02T10:59:29.523Z,6.37
2018-05-02T11:02:02.542Z,5.47
2018-05-02T11:04:34.726Z,7.50
2018-05-02T11:07:07.959Z,5.50
2018-05-02T11:09:40.117Z,4.40
2018-05-02T11:12:12.886Z,3.93
2018-05-02T11:14:45.799Z,5.50
2018-05-02T11:17:17.992Z,4.20
2018-05-02T11:19:51.067Z,4.33
2018-05-02T11:22:23.201Z,4.53
2018-05-02T11:24:55.524Z,3.70
2018-05-02T11:27:28.379Z,4.47
2018-05-02T11:30:00.464Z,4.90
2018-05-02T11:32:33.464Z,4.57
2018-05-02T11:35:05.807Z,5.47
2018-05-02T11:37:38.009Z,3.27
2018-05-02T11:40:10.244Z,3.40
2018-05-02T11:42:43.331Z,5.67
2018-05-02T11:45:15.692Z,4.03
2018-05-02T11:47:47.821Z,4.07
2018-05-02T11:50:19.961Z,4.60
2018-05-02T11:52:52.907Z,4.87
2018-05-02T11:55:25.056Z,6.07
2018-05-02T11:57:57.957Z,4.53
2018-05-02T12:00:31.078Z,4.93
2018-05-02T12:03:03.467Z,5.37
2018-05-02T12:05:36.657Z,4.73
2018-05-02T12:08:09.567Z,5.30
2018-05-02T12:10:41.939Z,5.70
2018-05-02T12:13:15.022Z,5.77
2018-05-02T12:15:47.429Z,5.93
2018-05-02T12:18:19.688Z,6.13
2018-05-02T12:20:52.230Z,5.13
2018-05-02T12:23:24.474Z,5.57
2018-05-02T12:25:57.631Z,5.50
2018-05-02T12:28:29.742Z,5.43
2018-05-02T12:31:02.733Z,5.20
2018-05-02T12:33:35.755Z,5.33
2018-05-02T12:36:08.213Z,4.80
2018-05-02T12:38:40.333Z,6.27
2018-05-02T12:41:13.592Z,5.47
2018-05-02T12:43:45.867Z,5.43
2018-05-02T12:46:17.983Z,6.33
2018-05-02T12:48:51.234Z,4.57
2018-05-02T12:51:23.962Z,5.53
2018-05-02T12:53:56.988Z,4.77
2018-05-02T12:56:29.186Z,5.93
2018-05-02T12:59:01.311Z,4.50
2018-05-02T13:01:33.411Z,4.60
2018-05-02T13:04:05.569Z,4.63
2018-05-02T13:06:37.824Z,6.87
2018-05-02T13:09:09.940Z,4.07
2018-05-02T13:11:42.346Z,6.00
2018-05-02T13:14:14.445Z,4.60
2018-05-02T13:16:46.571Z,5.77
2018-05-02T13:19:19.455Z,4.23
2018-05-02T13:21:52.550Z,4.93
2018-05-02T13:24:24.665Z,4.97
2018-05-02T13:26:57.022Z,4.77
2018-05-02T13:29:29.134Z,4.93
2018-05-02T13:32:01.479Z,5.67
2018-05-02T13:34:33.651Z,5.07
2018-05-02T13:37:06.139Z,4.43
2018-05-02T13:39:38.883Z,7.93
2018-05-02T13:42:11.243Z,5.10
2018-05-02T13:44:43.313Z,6.40
2018-05-02T13:47:15.390Z,5.13
2018-05-02T13:49:47.550Z,3.70
2018-05-02T13:52:19.644Z,4.10
2018-05-02T13:54:52.015Z,3.57
2018-05-02T13:57:24.315Z,5.03
2018-05-02T13:59:57.201Z,4.20
2018-05-02T14:02:30.155Z,3.67
2018-05-02T14:05:02.227Z,4.30
2018-05-02T14:07:34.618Z,7.73
2018-05-02T14:10:06.775Z,3.77
2018-05-02T14:12:38.859Z,4.67
2018-05-02T14:15:10.985Z,6.83
2018-05-02T14:17:43.163Z,5.93
2018-05-02T14:20:15.417Z,5.80
2018-05-02T14:22:48.408Z,5.70
2018-05-02T14:25:20.552Z,5.00
2018-05-02T14:27:52.654Z,3.97
2018-05-02T14:30:24.721Z,6.07
2018-05-02T14:32:57.151Z,6.13
2018-05-02T14:35:30.246Z,5.00
2018-05-02T14:38:02.539Z,6.60
2018-05-02T14:40:35.503Z,4.63
2018-05-02T14:43:07.694Z,5.30
2018-05-02T14:45:39.899Z,5.73
2018-05-02T14:48:12.989Z,5.10
2018-05-02T14:50:46.156Z,4.77
2018-05-02T14:53:18.529Z,5.67
2018-05-02T14:55:50.679Z,8.47
2018-05-02T14:58:22.894Z,10.13
2018-05-02T15:00:55.747Z,8.60
2018-05-02T15:03:27.855Z,4.93
2018-05-02T15:06:00.222Z,5.00
2018-05-02T15:08:33.120Z,4.23
2018-05-02T15:11:06.243Z,4.50
2018-05-02T15:13:38.593Z,5.93
2018-05-02T15:16:10.818Z,4.87
2018-05-02T15:18:42.982Z,6.97
2018-05-02T15:21:15.155Z,5.63
2018-05-02T15:23:47.253Z,4.57
2018-05-02T15:26:20.218Z,5.40
2018-05-02T15:28:53.283Z,6.30
2018-05-02T15:31:25.464Z,6.20
2018-05-02T15:33:57.605Z,6.77
2018-05-02T15:36:29.943Z,5.53
2018-05-02T15:39:02.064Z,4.90
2018-05-02T15:41:34.389Z,5.20
2018-05-02T15:44:07.135Z,6.23
2018-05-02T15:46:40.686Z,5.27
2018-05-02T15:49:13.072Z,4.60
2018-05-02T15:51:45.365Z,6.60
2018-05-02T15:54:17.526Z,5.00
2018-05-02T15:56:50.626Z,6.03
2018-05-02T15:59:22.878Z,5.03
2018-05-02T16:01:54.976Z,5.40
2018-05-02T16:04:27.810Z,5.40
2018-05-02T16:06:59.957Z,5.27
2018-05-02T16:09:32.042Z,9.20
2018-05-02T16:12:04.126Z,7.57
2018-05-02T16:14:36.227Z,5.30
2018-05-02T16:17:09.332Z,9.33
2018-05-02T16:19:41.694Z,6.27
2018-05-02T16:22:13.835Z,7.60
2018-05-02T16:24:46.226Z,7.70
2018-05-02T16:27:19.131Z,6.87
2018-05-02T16:29:51.491Z,5.43
2018-05-02T16:32:24.402Z,6.13
2018-05-02T16:34:56.567Z,9.70
2018-05-02T16:37:28.922Z,5.77
2018-05-02T16:40:01.182Z,8.67
2018-05-02T16:42:34.515Z,8.07
2018-05-02T16:45:07.035Z,6.27
2018-05-02T16:47:39.334Z,7.67
2018-05-02T16:50:12.250Z,6.57
2018-05-02T16:52:44.357Z,7.33
2018-05-02T16:55:17.454Z,6.83
2018-05-02T16:57:50.574Z,6.77
2018-05-02T17:00:22.841Z,6.47
2018-05-02T17:02:55.215Z,5.73
2018-05-02T17:05:27.539Z,6.20
2018-05-02T17:08:00.554Z,5.80
2018-05-02T17:10:33.520Z,6.47
2018-05-02T17:13:06.626Z,8.10
2018-05-02T17:15:38.975Z,8.23
2018-05-02T17:18:11.648Z,8.30
2018-05-02T17:20:43.806Z,6.87
2018-05-02T17:23:16.256Z,7.27
2018-05-02T17:25:49.187Z,7.50
2018-05-02T17:28:21.317Z,7.27
2018-05-02T17:30:54.354Z,6.30
2018-05-02T17:33:27.449Z,6.30
2018-05-02T17:36:00.372Z,5.37
2018-05-02T17:38:32.482Z,5.80
2018-05-02T17:41:04.611Z,7.07
2018-05-02T17:43:37.246Z,6.60
2018-05-02T17:46:10.368Z,6.00
2018-05-02T17:48:42.452Z,6.53
2018-05-02T17:51:14.549Z,6.20
2018-05-02T17:53:46.792Z,8.93
2018-05-02T17:56:18.973Z,5.80
2018-05-02T17:58:51.180Z,6.13
2018-05-02T18:01:24.194Z,6.97
2018-05-02T18:03:56.762Z,6.33
2018-05-02T18:06:29.791Z,6.30
2018-05-02T18:09:01.976Z,7.00
2018-05-02T18:11:34.061Z,6.23
2018-05-02T18:14:07.921Z,6.93
2018-05-02T18:16:40.008Z,6.70
2018-05-02T18:19:12.294Z,5.90
2018-05-02T18:21:44.423Z,6.10
2018-05-02T18:24:16.592Z,7.60
2018-05-02T18:26:49.839Z,7.57
2018-05-02T18:29:22.768Z,7.80
2018-05-02T18:31:54.878Z,6.60
2018-05-02T18:34:27.852Z,6.50
2018-05-02T18:37:00.947Z,8.77
2018-05-02T18:39:34.406Z,9.43
2018-05-02T18:42:07.541Z,9.53
2018-05-02T18:44:39.678Z,6.60
2018-05-02T18:47:11.877Z,6.70
2018-05-02T18:49:43.957Z,7.17
2018-05-02T18:52:16.893Z,6.67
2018-05-02T18:54:49.215Z,9.00
2018-05-02T18:57:22.169Z,7.67
2018-05-02T18:59:55.092Z,8.77
2018-05-02T19:02:28.014Z,7.90
2018-05-02T19:05:00.131Z,9.17
2018-05-02T19:07:33.061Z,7.87
2018-05-02T19:10:05.151Z,9.37
2018-05-02T19:12:37.556Z,10.13
2018-05-02T19:15:10.440Z,7.83
2018-05-02T19:17:43.266Z,7.50
2018-05-02T19:20:15.460Z,8.60
2018-05-02T19:22:47.600Z,8.50
2018-05-02T19:25:19.684Z,9.53
2018-05-02T19:27:51.774Z,8.60
2018-05-02T19:30:24.192Z,8.27
2018-05-02T19:32:56.565Z,11.60
2018-05-02T19:35:28.853Z,8.67
2018-05-02T19:38:01.143Z,8.90
2018-05-02T19:40:33.435Z,9.00
2018-05-02T19:43:05.575Z,9.30
2018-05-02T19:45:37.989Z,9.27
2018-05-02T19:48:11.166Z,9.57
2018-05-02T19:50:43.434Z,9.40
2018-05-02T19:53:15.715Z,9.43
2018-05-02T19:55:48.772Z,8.53
2018-05-02T19:58:21.203Z,8.77
2018-05-02T20:00:53.311Z,10.47
2018-05-02T20:03:25.698Z,10.70
2018-05-02T20:05:58.991Z,9.60
2018-05-02T20:08:31.293Z,10.00
2018-05-02T20:11:04.303Z,8.77
2018-05-02T20:13:36.610Z,9.17
2018-05-02T20:16:08.936Z,9.93
2018-05-02T20:18:41.001Z,8.90
2018-05-02T20:21:13.421Z,9.23
2018-05-02T20:23:45.617Z,9.43
2018-05-02T20:26:18.460Z,11.60
2018-05-02T20:28:51.477Z,9.77
2018-05-02T20:31:24.575Z,8.87
2018-05-02T20:33:57.644Z,9.33
2018-05-02T20:36:30.046Z,8.77
2018-05-02T20:39:02.353Z,9.10
2018-05-02T20:41:34.601Z,9.03
2018-05-02T20:44:07.029Z,10.63
2018-05-02T20:46:39.083Z,7.60
2018-05-02T20:49:11.215Z,10.47
2018-05-02T20:51:43.309Z,9.23
2018-05-02T20:54:15.334Z,7.77
2018-05-02T20:56:48.255Z,7.87
2018-05-02T20:59:20.428Z,8.00
2018-05-02T21:01:52.588Z,8.43
2018-05-02T21:04:24.706Z,7.80
2018-05-02T21:06:58.117Z,8.00
2018-05-02T21:09:31.172Z,7.43
2018-05-02T21:12:03.492Z,8.03
2018-05-02T21:14:35.736Z,7.43
2018-05-02T21:17:07.791Z,8.00
2018-05-02T21:19:40.066Z,7.57
2018-05-02T21:22:12.146Z,8.87
2018-05-02T21:24:45.008Z,7.67
2018-05-02T21:27:17.420Z,7.97
2018-05-02T21:29:49.536Z,7.67
2018-05-02T21:32:21.685Z,7.30
2018-05-02T21:34:53.940Z,9.70
2018-05-02T21:37:26.325Z,7.90
2018-05-02T21:39:58.551Z,7.83
2018-05-02T21:42:32.039Z,7.83
2018-05-02T21:45:04.928Z,7.50
2018-05-02T21:47:37.815Z,8.73
2018-05-02T21:50:11.871Z,8.83
2018-05-02T21:52:44.132Z,8.33
2018-05-02T21:55:16.360Z,8.87
2018-05-02T21:57:49.241Z,8.27
2018-05-02T22:00:22.202Z,8.10
2018-05-02T22:02:54.338Z,8.13
2018-05-02T22:05:26.626Z,7.83
2018-05-02T22:07:58.943Z,8.90
2018-05-02T22:10:31.923Z,7.30
2018-05-02T22:13:04.863Z,7.20
2018-05-02T22:15:37.036Z,7.43
2018-05-02T22:18:09.141Z,7.90
2018-05-02T22:20:41.547Z,6.80
2018-05-02T22:23:13.665Z,7.00
2018-05-02T22:25:45.831Z,7.77
2018-05-02T22:28:18.196Z,7.10
2018-05-02T22:30:50.341Z,6.97
2018-05-02T22:33:22.448Z,6.20
2018-05-02T22:35:55.097Z,8.13
2018-05-02T22:38:27.341Z,7.20
2018-05-02T22:40:59.436Z,6.47
2018-05-02T22:43:31.754Z,9.23
2018-05-02T22:46:04.716Z,7.13
2018-05-02T22:48:37.022Z,5.40
2018-05-02T22:51:09.177Z,4.97
2018-05-02T22:53:42.072Z,7.10
2018-05-02T22:56:14.117Z,4.50
2018-05-02T22:58:46.174Z,4.90
2018-05-02T23:01:18.377Z,6.00
2018-05-02T23:03:50.632Z,4.07
2018-05-02T23:37:53.785Z,4.80
2018-05-02T23:40:26.103Z,4.40
2018-05-02T23:42:58.954Z,5.77
2018-05-02T23:45:31.132Z,7.90
2018-05-02T23:48:03.342Z,5.53
2018-05-02T23:50:36.407Z,5.20
2018-05-02T23:53:09.367Z,5.87
2018-05-02T23:55:41.456Z,6.90
2018-05-02T23:58:14.303Z,8.57
